sensor_id;sensor_type;location;lat;lon;timestamp;noise_LAeq;noise_LA_min;noise_LA_max;noise_LA01;noise_LA95
59284;Laerm;45056;47.602;9.886;2023-08-12T00:01:19;43.14;35.36;57.38;;
59284;Laerm;45056;47.602;9.886;2023-08-12T00:03:48;40.34;33.90;53.25;;
59284;Laerm;45056;47.602;9.886;2023-08-12T00:06:16;39.40;34.31;56.05;;
59284;Laerm;45056;47.602;9.886;2023-08-12T00:08:45;38.17;32.93;42.53;;
59284;Laerm;45056;47.602;9.886;2023-08-12T00:11:13;38.45;31.68;42.09;;
59284;Laerm;45056;47.602;9.886;2023-08-12T00:13:41;39.77;34.31;51.76;;
59284;Laerm;45056;47.602;9.886;2023-08-12T00:16:09;40.72;34.31;56.39;;
59284;Laerm;45056;47.602;9.886;2023-08-12T00:18:37;38.38;34.31;56.34;;
59284;Laerm;45056;47.602;9.886;2023-08-12T00:21:08;40.70;33.44;56.59;;
59284;Laerm;45056;47.602;9.886;2023-08-12T00:23:38;41.18;33.90;57.43;;
59284;Laerm;45056;47.602;9.886;2023-08-12T00:26:08;38.96;35.04;42.35;;
59284;Laerm;45056;47.602;9.886;2023-08-12T00:28:37;38.76;34.31;55.71;;
59284;Laerm;45056;47.602;9.886;2023-08-12T00:31:05;40.74;33.90;56.51;;
59284;Laerm;45056;47.602;9.886;2023-08-12T00:33:33;39.08;32.35;43.39;;
59284;Laerm;45056;47.602;9.886;2023-08-12T00:36:01;38.51;33.44;46.02;;
59284;Laerm;45056;47.602;9.886;2023-08-12T00:38:29;40.80;33.90;53.46;;
59284;Laerm;45056;47.602;9.886;2023-08-12T00:40:57;40.44;35.04;52.51;;
59284;Laerm;45056;47.602;9.886;2023-08-12T00:43:26;41.35;32.93;56.00;;
59284;Laerm;45056;47.602;9.886;2023-08-12T00:45:55;41.83;33.90;57.94;;
59284;Laerm;45056;47.602;9.886;2023-08-12T00:48:23;38.45;34.31;42.82;;
59284;Laerm;45056;47.602;9.886;2023-08-12T00:50:53;38.70;32.93;44.23;;
59284;Laerm;45056;47.602;9.886;2023-08-12T00:53:21;38.39;33.90;42.82;;
59284;Laerm;45056;47.602;9.886;2023-08-12T00:55:50;41.50;34.31;56.42;;
59284;Laerm;45056;47.602;9.886;2023-08-12T00:58:19;39.96;33.90;48.22;;
59284;Laerm;45056;47.602;9.886;2023-08-12T01:00:49;43.68;35.66;56.49;;
59284;Laerm;45056;47.602;9.886;2023-08-12T01:03:17;41.78;33.90;54.36;;
59284;Laerm;45056;47.602;9.886;2023-08-12T01:05:46;38.42;33.90;44.42;;
59284;Laerm;45056;47.602;9.886;2023-08-12T01:08:14;42.18;33.90;57.78;;
59284;Laerm;45056;47.602;9.886;2023-08-12T01:10:52;38.62;34.69;49.57;;
59284;Laerm;45056;47.602;9.886;2023-08-12T01:13:37;38.12;33.90;42.16;;
59284;Laerm;45056;47.602;9.886;2023-08-12T01:16:15;42.18;32.35;59.23;;
59284;Laerm;45056;47.602;9.886;2023-08-12T01:18:45;38.03;33.44;43.14;;
59284;Laerm;45056;47.602;9.886;2023-08-12T01:21:17;41.55;33.90;59.07;;
59284;Laerm;45056;47.602;9.886;2023-08-12T01:23:50;38.24;33.44;44.80;;
59284;Laerm;45056;47.602;9.886;2023-08-12T01:26:18;38.23;33.90;42.41;;
59284;Laerm;45056;47.602;9.886;2023-08-12T01:28:46;38.09;33.44;42.88;;
59284;Laerm;45056;47.602;9.886;2023-08-12T01:31:26;41.01;33.90;57.73;;
59284;Laerm;45056;47.602;9.886;2023-08-12T01:34:07;39.31;34.31;47.76;;
59284;Laerm;45056;47.602;9.886;2023-08-12T01:36:46;41.44;33.90;55.91;;
59284;Laerm;45056;47.602;9.886;2023-08-12T01:39:21;39.69;32.93;53.22;;
59284;Laerm;45056;47.602;9.886;2023-08-12T01:41:52;40.18;33.90;51.36;;
59284;Laerm;45056;47.602;9.886;2023-08-12T01:44:22;40.10;34.31;47.32;;
59284;Laerm;45056;47.602;9.886;2023-08-12T01:46:50;42.74;35.36;57.81;;
59284;Laerm;45056;47.602;9.886;2023-08-12T01:49:18;40.49;34.31;53.99;;
59284;Laerm;45056;47.602;9.886;2023-08-12T01:51:46;38.33;34.31;40.89;;
59284;Laerm;45056;47.602;9.886;2023-08-12T01:54:14;40.21;34.69;52.83;;
59284;Laerm;45056;47.602;9.886;2023-08-12T01:56:43;40.63;34.69;49.72;;
59284;Laerm;45056;47.602;9.886;2023-08-12T01:59:11;39.64;31.68;52.89;;
59284;Laerm;45056;47.602;9.886;2023-08-12T02:01:39;44.38;34.31;59.03;;
59284;Laerm;45056;47.602;9.886;2023-08-12T02:04:07;38.13;33.44;42.35;;
59284;Laerm;45056;47.602;9.886;2023-08-12T02:06:35;37.68;32.93;42.59;;
59284;Laerm;45056;47.602;9.886;2023-08-12T02:09:04;38.38;33.44;52.54;;
59284;Laerm;45056;47.602;9.886;2023-08-12T02:11:32;38.83;34.31;45.97;;
59284;Laerm;45056;47.602;9.886;2023-08-12T02:14:01;42.20;34.69;59.06;;
59284;Laerm;45056;47.602;9.886;2023-08-12T02:16:29;40.29;31.68;55.53;;
59284;Laerm;45056;47.602;9.886;2023-08-12T02:18:57;38.71;34.31;42.71;;
59284;Laerm;45056;47.602;9.886;2023-08-12T02:21:25;38.67;34.69;43.94;;
59284;Laerm;45056;47.602;9.886;2023-08-12T02:23:53;44.61;34.69;55.58;;
59284;Laerm;45056;47.602;9.886;2023-08-12T02:26:21;39.12;35.36;47.34;;
59284;Laerm;45056;47.602;9.886;2023-08-12T02:28:49;40.23;33.44;54.27;;
59284;Laerm;45056;47.602;9.886;2023-08-12T02:31:19;41.38;33.44;57.42;;
59284;Laerm;45056;47.602;9.886;2023-08-12T02:33:47;39.34;34.69;53.47;;
59284;Laerm;45056;47.602;9.886;2023-08-12T02:36:16;38.84;33.90;45.75;;
59284;Laerm;45056;47.602;9.886;2023-08-12T02:38:44;39.35;34.69;46.25;;
59284;Laerm;45056;47.602;9.886;2023-08-12T02:41:12;43.84;33.90;62.28;;
59284;Laerm;45056;47.602;9.886;2023-08-12T02:43:40;39.44;34.31;46.66;;
59284;Laerm;45056;47.602;9.886;2023-08-12T02:46:08;41.99;34.31;56.83;;
59284;Laerm;45056;47.602;9.886;2023-08-12T02:48:37;39.21;35.04;43.29;;
59284;Laerm;45056;47.602;9.886;2023-08-12T02:51:05;40.08;35.31;46.55;;
59284;Laerm;45056;47.602;9.886;2023-08-12T02:53:33;39.49;34.69;48.54;;
59284;Laerm;45056;47.602;9.886;2023-08-12T02:56:01;38.79;34.69;42.19;;
59284;Laerm;45056;47.602;9.886;2023-08-12T02:58:29;41.60;33.90;51.17;;
59284;Laerm;45056;47.602;9.886;2023-08-12T03:00:57;45.40;34.69;57.14;;
59284;Laerm;45056;47.602;9.886;2023-08-12T03:03:27;38.83;33.90;42.98;;
59284;Laerm;45056;47.602;9.886;2023-08-12T03:05:56;39.88;35.04;48.48;;
59284;Laerm;45056;47.602;9.886;2023-08-12T03:08:24;40.05;34.69;50.44;;
59284;Laerm;45056;47.602;9.886;2023-08-12T03:10:58;41.09;35.04;53.85;;
59284;Laerm;45056;47.602;9.886;2023-08-12T03:13:27;42.08;35.36;52.95;;
59284;Laerm;45056;47.602;9.886;2023-08-12T03:15:55;41.67;36.10;55.34;;
59284;Laerm;45056;47.602;9.886;2023-08-12T03:18:23;42.16;36.69;52.04;;
59284;Laerm;45056;47.602;9.886;2023-08-12T03:20:52;41.79;35.04;53.80;;
59284;Laerm;45056;47.602;9.886;2023-08-12T03:23:21;40.48;34.31;51.98;;
59284;Laerm;45056;47.602;9.886;2023-08-12T03:25:49;42.23;35.36;62.18;;
59284;Laerm;45056;47.602;9.886;2023-08-12T03:28:17;43.29;35.36;56.70;;
59284;Laerm;45056;47.602;9.886;2023-08-12T03:30:51;42.16;35.31;57.42;;
59284;Laerm;45056;47.602;9.886;2023-08-12T03:33:19;42.36;36.20;56.15;;
59284;Laerm;45056;47.602;9.886;2023-08-12T03:35:47;40.81;36.69;53.29;;
59284;Laerm;45056;47.602;9.886;2023-08-12T03:38:16;46.89;36.91;61.82;;
59284;Laerm;45056;47.602;9.886;2023-08-12T03:40:45;47.42;35.66;69.63;;
59284;Laerm;45056;47.602;9.886;2023-08-12T03:43:13;41.42;35.36;50.36;;
59284;Laerm;45056;47.602;9.886;2023-08-12T03:45:42;44.05;36.45;56.55;;
59284;Laerm;45056;47.602;9.886;2023-08-12T03:48:11;44.38;36.20;58.01;;
59284;Laerm;45056;47.602;9.886;2023-08-12T03:50:41;40.58;33.90;50.77;;
59284;Laerm;45056;47.602;9.886;2023-08-12T03:53:09;49.46;35.94;69.50;;
59284;Laerm;45056;47.602;9.886;2023-08-12T03:55:37;40.55;35.66;47.42;;
59284;Laerm;45056;47.602;9.886;2023-08-12T03:58:06;40.82;35.04;54.52;;
59284;Laerm;45056;47.602;9.886;2023-08-12T04:00:34;45.26;35.94;56.33;;
59284;Laerm;45056;47.602;9.886;2023-08-12T04:03:03;52.97;35.66;67.40;;
59284;Laerm;45056;47.602;9.886;2023-08-12T04:05:31;52.27;34.69;67.92;;
59284;Laerm;45056;47.602;9.886;2023-08-12T04:07:59;41.24;35.36;52.13;;
59284;Laerm;45056;47.602;9.886;2023-08-12T04:10:27;43.31;36.20;56.61;;
59284;Laerm;45056;47.602;9.886;2023-08-12T04:12:55;46.02;35.94;62.08;;
59284;Laerm;45056;47.602;9.886;2023-08-12T04:15:24;41.40;34.31;55.73;;
59284;Laerm;45056;47.602;9.886;2023-08-12T04:17:52;42.12;35.66;57.89;;
59284;Laerm;45056;47.602;9.886;2023-08-12T04:20:20;41.65;36.20;56.52;;
59284;Laerm;45056;47.602;9.886;2023-08-12T04:22:49;41.32;36.10;55.99;;
59284;Laerm;45056;47.602;9.886;2023-08-12T04:25:18;41.76;35.94;51.32;;
59284;Laerm;45056;47.602;9.886;2023-08-12T04:27:46;41.75;36.45;51.77;;
59284;Laerm;45056;47.602;9.886;2023-08-12T04:30:16;43.43;36.45;57.34;;
59284;Laerm;45056;47.602;9.886;2023-08-12T04:32:45;46.99;36.69;63.64;;
59284;Laerm;45056;47.602;9.886;2023-08-12T04:35:13;42.43;35.66;55.02;;
59284;Laerm;45056;47.602;9.886;2023-08-12T04:37:41;42.46;36.56;53.53;;
59284;Laerm;45056;47.602;9.886;2023-08-12T04:40:10;42.38;37.12;53.21;;
59284;Laerm;45056;47.602;9.886;2023-08-12T04:42:39;42.31;36.20;55.43;;
59284;Laerm;45056;47.602;9.886;2023-08-12T04:45:08;42.94;36.45;59.65;;
59284;Laerm;45056;47.602;9.886;2023-08-12T04:47:36;42.45;35.66;56.98;;
59284;Laerm;45056;47.602;9.886;2023-08-12T04:50:07;45.10;35.36;58.86;;
59284;Laerm;45056;47.602;9.886;2023-08-12T04:52:35;40.34;35.94;46.25;;
59284;Laerm;45056;47.602;9.886;2023-08-12T04:55:03;42.84;36.45;54.49;;
59284;Laerm;45056;47.602;9.886;2023-08-12T04:57:32;43.34;37.32;56.29;;
59284;Laerm;45056;47.602;9.886;2023-08-12T05:00:00;44.24;36.45;56.58;;
59284;Laerm;45056;47.602;9.886;2023-08-12T05:02:28;46.37;36.69;56.62;;
59284;Laerm;45056;47.602;9.886;2023-08-12T05:04:56;48.10;38.37;60.45;;
59284;Laerm;45056;47.602;9.886;2023-08-12T05:07:25;42.91;37.88;52.93;;
59284;Laerm;45056;47.602;9.886;2023-08-12T05:09:54;43.33;37.88;53.73;;
59284;Laerm;45056;47.602;9.886;2023-08-12T05:12:22;43.25;36.20;53.62;;
59284;Laerm;45056;47.602;9.886;2023-08-12T05:14:50;44.83;38.81;71.13;;
59284;Laerm;45056;47.602;9.886;2023-08-12T05:17:18;43.66;38.95;55.62;;
59284;Laerm;45056;47.602;9.886;2023-08-12T05:19:46;44.67;38.81;54.59;;
59284;Laerm;45056;47.602;9.886;2023-08-12T05:22:14;43.65;37.12;54.71;;
59284;Laerm;45056;47.602;9.886;2023-08-12T05:24:43;46.66;38.99;60.17;;
59284;Laerm;45056;47.602;9.886;2023-08-12T05:27:11;43.50;38.05;54.94;;
59284;Laerm;45056;47.602;9.886;2023-08-12T05:29:39;43.45;37.32;55.74;;
59284;Laerm;45056;47.602;9.886;2023-08-12T05:32:08;44.94;37.52;55.47;;
59284;Laerm;45056;47.602;9.886;2023-08-12T05:34:36;45.12;37.88;55.58;;
59284;Laerm;45056;47.602;9.886;2023-08-12T05:37:04;44.18;38.05;53.87;;
59284;Laerm;45056;47.602;9.886;2023-08-12T05:39:31;43.75;38.95;52.45;;
59284;Laerm;45056;47.602;9.886;2023-08-12T05:42:01;45.54;38.37;55.40;;
59284;Laerm;45056;47.602;9.886;2023-08-12T05:44:28;44.38;38.18;54.72;;
59284;Laerm;45056;47.602;9.886;2023-08-12T05:46:56;45.90;39.08;56.02;;
59284;Laerm;45056;47.602;9.886;2023-08-12T05:49:24;45.99;40.13;56.91;;
59284;Laerm;45056;47.602;9.886;2023-08-12T05:51:52;45.65;38.67;59.08;;
59284;Laerm;45056;47.602;9.886;2023-08-12T05:54:20;44.84;37.88;54.65;;
59284;Laerm;45056;47.602;9.886;2023-08-12T05:56:48;45.32;36.91;61.94;;
59284;Laerm;45056;47.602;9.886;2023-08-12T05:59:18;43.85;36.69;54.67;;
59284;Laerm;45056;47.602;9.886;2023-08-12T06:01:46;48.25;40.03;57.50;;
59284;Laerm;45056;47.602;9.886;2023-08-12T06:04:14;46.06;38.95;58.65;;
59284;Laerm;45056;47.602;9.886;2023-08-12T06:06:42;44.97;38.37;52.79;;
59284;Laerm;45056;47.602;9.886;2023-08-12T06:09:10;44.15;37.32;53.21;;
59284;Laerm;45056;47.602;9.886;2023-08-12T06:11:38;45.62;39.46;54.63;;
59284;Laerm;45056;47.602;9.886;2023-08-12T06:14:06;48.38;40.03;64.74;;
59284;Laerm;45056;47.602;9.886;2023-08-12T06:16:36;44.31;38.81;55.83;;
59284;Laerm;45056;47.602;9.886;2023-08-12T06:19:04;44.06;38.52;56.26;;
59284;Laerm;45056;47.602;9.886;2023-08-12T06:21:32;43.43;39.34;50.56;;
59284;Laerm;45056;47.602;9.886;2023-08-12T06:24:00;44.47;39.70;54.04;;
59284;Laerm;45056;47.602;9.886;2023-08-12T06:26:28;47.17;40.13;59.10;;
59284;Laerm;45056;47.602;9.886;2023-08-12T06:28:56;44.55;39.08;55.99;;
59284;Laerm;45056;47.602;9.886;2023-08-12T06:31:24;46.18;39.46;56.42;;
59284;Laerm;45056;47.602;9.886;2023-08-12T06:33:53;45.00;38.81;55.40;;
59284;Laerm;45056;47.602;9.886;2023-08-12T06:36:21;45.71;39.08;59.96;;
59284;Laerm;45056;47.602;9.886;2023-08-12T06:38:49;44.47;38.81;54.24;;
59284;Laerm;45056;47.602;9.886;2023-08-12T06:41:17;46.74;39.58;56.62;;
59284;Laerm;45056;47.602;9.886;2023-08-12T06:43:45;46.53;40.43;54.86;;
59284;Laerm;45056;47.602;9.886;2023-08-12T06:46:14;46.67;41.14;61.16;;
59284;Laerm;45056;47.602;9.886;2023-08-12T06:48:41;45.94;37.88;55.08;;
59284;Laerm;45056;47.602;9.886;2023-08-12T06:51:11;47.41;41.06;59.15;;
59284;Laerm;45056;47.602;9.886;2023-08-12T06:53:40;47.13;38.52;61.35;;
59284;Laerm;45056;47.602;9.886;2023-08-12T06:56:08;45.80;40.23;55.74;;
59284;Laerm;45056;47.602;9.886;2023-08-12T06:58:36;44.33;39.46;52.55;;
59284;Laerm;45056;47.602;9.886;2023-08-12T07:01:04;48.96;39.81;58.07;;
59284;Laerm;45056;47.602;9.886;2023-08-12T07:03:32;44.43;39.08;54.08;;
59284;Laerm;45056;47.602;9.886;2023-08-12T07:06:00;48.31;39.92;61.26;;
59284;Laerm;45056;47.602;9.886;2023-08-12T07:08:30;50.08;40.80;65.57;;
59284;Laerm;45056;47.602;9.886;2023-08-12T07:10:58;51.01;41.06;58.11;;
59284;Laerm;45056;47.602;9.886;2023-08-12T07:13:26;51.31;42.35;57.28;;
59284;Laerm;45056;47.602;9.886;2023-08-12T07:15:54;49.67;41.30;58.83;;
59284;Laerm;45056;47.602;9.886;2023-08-12T07:18:22;47.43;40.98;54.23;;
59284;Laerm;45056;47.602;9.886;2023-08-12T07:20:50;46.03;41.75;53.38;;
59284;Laerm;45056;47.602;9.886;2023-08-12T07:23:18;47.01;40.43;68.56;;
59284;Laerm;45056;47.602;9.886;2023-08-12T07:25:48;46.05;40.43;59.21;;
59284;Laerm;45056;47.602;9.886;2023-08-12T07:28:16;46.63;41.14;54.38;;
59284;Laerm;45056;47.602;9.886;2023-08-12T07:30:44;48.23;40.71;60.29;;
59284;Laerm;45056;47.602;9.886;2023-08-12T07:33:11;46.10;40.27;54.90;;
59284;Laerm;45056;47.602;9.886;2023-08-12T07:35:39;48.05;41.14;56.84;;
59284;Laerm;45056;47.602;9.886;2023-08-12T07:38:07;46.15;40.08;55.74;;
59284;Laerm;45056;47.602;9.886;2023-08-12T07:40:35;46.91;39.21;64.07;;
59284;Laerm;45056;47.602;9.886;2023-08-12T07:43:05;44.36;39.70;53.40;;
59284;Laerm;45056;47.602;9.886;2023-08-12T07:45:33;47.39;41.38;58.52;;
59284;Laerm;45056;47.602;9.886;2023-08-12T07:48:01;49.80;41.61;65.26;;
59284;Laerm;45056;47.602;9.886;2023-08-12T07:50:29;46.57;40.88;58.42;;
59284;Laerm;45056;47.602;9.886;2023-08-12T07:52:57;46.37;39.58;59.35;;
59284;Laerm;45056;47.602;9.886;2023-08-12T07:55:27;47.70;39.68;63.81;;
59284;Laerm;45056;47.602;9.886;2023-08-12T07:57:55;45.15;38.95;54.68;;
59284;Laerm;45056;47.602;9.886;2023-08-12T08:00:24;50.29;41.38;64.21;;
59284;Laerm;45056;47.602;9.886;2023-08-12T08:02:52;47.78;42.35;58.04;;
59284;Laerm;45056;47.602;9.886;2023-08-12T08:05:20;47.54;42.35;61.93;;
59284;Laerm;45056;47.602;9.886;2023-08-12T08:07:48;52.09;42.03;71.18;;
59284;Laerm;45056;47.602;9.886;2023-08-12T08:10:16;46.99;42.47;55.53;;
59284;Laerm;45056;47.602;9.886;2023-08-12T08:12:44;46.01;41.06;55.37;;
59284;Laerm;45056;47.602;9.886;2023-08-12T08:15:12;53.29;42.41;67.65;;
59284;Laerm;45056;47.602;9.886;2023-08-12T08:17:41;49.65;39.92;67.11;;
59284;Laerm;45056;47.602;9.886;2023-08-12T08:20:10;46.41;41.53;55.03;;
59284;Laerm;45056;47.602;9.886;2023-08-12T08:22:38;45.35;39.70;52.83;;
59284;Laerm;45056;47.602;9.886;2023-08-12T08:25:10;46.09;42.09;52.98;;
59284;Laerm;45056;47.602;9.886;2023-08-12T08:27:40;49.69;42.65;59.38;;
59284;Laerm;45056;47.602;9.886;2023-08-12T08:30:11;49.15;41.96;63.10;;
59284;Laerm;45056;47.602;9.886;2023-08-12T08:32:41;46.88;41.61;58.32;;
59284;Laerm;45056;47.602;9.886;2023-08-12T08:35:18;47.69;42.47;58.92;;
59284;Laerm;45056;47.602;9.886;2023-08-12T08:38:02;48.47;41.89;62.13;;
59284;Laerm;45056;47.602;9.886;2023-08-12T08:40:46;48.78;40.98;60.50;;
59284;Laerm;45056;47.602;9.886;2023-08-12T08:43:37;53.81;47.32;59.46;;
59284;Laerm;45056;47.602;9.886;2023-08-12T08:51:02;50.08;41.14;65.36;;
59284;Laerm;45056;47.602;9.886;2023-08-12T08:58:11;50.91;41.96;67.02;;
59284;Laerm;45056;47.602;9.886;2023-08-12T09:01:36;48.88;39.70;60.14;;
59284;Laerm;45056;47.602;9.886;2023-08-12T09:04:51;46.05;40.71;56.05;;
59284;Laerm;45056;47.602;9.886;2023-08-12T09:35:41;47.63;41.53;60.47;;
59284;Laerm;45056;47.602;9.886;2023-08-12T09:38:13;47.09;40.89;59.58;;
59284;Laerm;45056;47.602;9.886;2023-08-12T09:40:41;46.03;40.80;52.75;;
59284;Laerm;45056;47.602;9.886;2023-08-12T09:43:10;46.36;40.98;55.95;;
59284;Laerm;45056;47.602;9.886;2023-08-12T09:45:39;47.01;41.22;57.77;;
59284;Laerm;45056;47.602;9.886;2023-08-12T09:48:07;49.66;41.46;66.33;;
59284;Laerm;45056;47.602;9.886;2023-08-12T09:50:36;47.16;41.46;57.15;;
59284;Laerm;45056;47.602;9.886;2023-08-12T09:53:06;46.43;40.03;58.22;;
59284;Laerm;45056;47.602;9.886;2023-08-12T09:55:35;47.00;40.71;55.54;;
59284;Laerm;45056;47.602;9.886;2023-08-12T09:58:09;47.27;41.82;57.88;;
59284;Laerm;45056;47.602;9.886;2023-08-12T10:00:39;48.65;40.53;57.37;;
59284;Laerm;45056;47.602;9.886;2023-08-12T10:03:10;52.67;40.80;65.09;;
59284;Laerm;45056;47.602;9.886;2023-08-12T10:05:42;59.05;44.65;70.82;;
59284;Laerm;45056;47.602;9.886;2023-08-12T10:08:14;46.88;40.80;57.43;;
59284;Laerm;45056;47.602;9.886;2023-08-12T10:10:43;46.02;39.58;56.41;;
59284;Laerm;45056;47.602;9.886;2023-08-12T10:13:11;46.68;40.80;56.54;;
59284;Laerm;45056;47.602;9.886;2023-08-12T10:15:40;48.13;42.09;59.52;;
59284;Laerm;45056;47.602;9.886;2023-08-12T10:18:10;46.79;41.11;60.32;;
59284;Laerm;45056;47.602;9.886;2023-08-12T10:20:39;45.39;40.33;56.44;;
59284;Laerm;45056;47.602;9.886;2023-08-12T10:23:15;45.87;39.46;56.92;;
59284;Laerm;45056;47.602;9.886;2023-08-12T10:25:45;47.10;41.06;58.18;;
59284;Laerm;45056;47.602;9.886;2023-08-12T10:28:13;47.72;42.16;59.24;;
59284;Laerm;45056;47.602;9.886;2023-08-12T10:30:40;47.16;41.96;55.95;;
59284;Laerm;45056;47.602;9.886;2023-08-12T10:33:10;47.81;40.89;58.39;;
59284;Laerm;45056;47.602;9.886;2023-08-12T10:35:46;46.42;40.98;57.92;;
59284;Laerm;45056;47.602;9.886;2023-08-12T10:38:19;47.40;40.71;56.89;;
59284;Laerm;45056;47.602;9.886;2023-08-12T10:40:48;46.49;41.30;54.94;;
59284;Laerm;45056;47.602;9.886;2023-08-12T10:43:16;49.41;42.47;61.55;;
59284;Laerm;45056;47.602;9.886;2023-08-12T10:45:52;48.95;41.14;63.20;;
59284;Laerm;45056;47.602;9.886;2023-08-12T10:48:23;46.61;40.80;56.42;;
59284;Laerm;45056;47.602;9.886;2023-08-12T10:50:55;46.10;40.23;54.03;;
59284;Laerm;45056;47.602;9.886;2023-08-12T10:53:28;46.65;41.89;55.27;;
59284;Laerm;45056;47.602;9.886;2023-08-12T10:56:01;48.14;41.61;67.70;;
59284;Laerm;45056;47.602;9.886;2023-08-12T10:58:41;46.03;41.53;53.92;;
59284;Laerm;45056;47.602;9.886;2023-08-12T11:01:17;48.40;41.53;58.81;;
59284;Laerm;45056;47.602;9.886;2023-08-12T11:03:47;47.77;40.53;57.93;;
59284;Laerm;45056;47.602;9.886;2023-08-12T11:06:15;48.85;41.38;61.43;;
59284;Laerm;45056;47.602;9.886;2023-08-12T11:08:52;45.39;40.62;54.62;;
59284;Laerm;45056;47.602;9.886;2023-08-12T11:11:23;47.59;42.22;57.29;;
59284;Laerm;45056;47.602;9.886;2023-08-12T11:13:53;47.10;41.75;56.26;;
59284;Laerm;45056;47.602;9.886;2023-08-12T11:16:34;48.48;41.61;61.33;;
59284;Laerm;45056;47.602;9.886;2023-08-12T11:19:03;53.89;40.89;72.91;;
59284;Laerm;45056;47.602;9.886;2023-08-12T11:24:04;47.08;41.61;55.05;;
59284;Laerm;45056;47.602;9.886;2023-08-12T11:26:32;46.58;40.71;58.66;;
59284;Laerm;45056;47.602;9.886;2023-08-12T11:29:00;48.27;41.53;61.13;;
59284;Laerm;45056;47.602;9.886;2023-08-12T11:31:28;47.71;42.16;60.35;;
59284;Laerm;45056;47.602;9.886;2023-08-12T11:33:57;47.41;40.96;59.18;;
59284;Laerm;45056;47.602;9.886;2023-08-12T11:36:25;48.74;41.68;59.90;;
59284;Laerm;45056;47.602;9.886;2023-08-12T11:38:53;47.09;42.93;59.49;;
59284;Laerm;45056;47.602;9.886;2023-08-12T11:41:24;47.54;40.89;56.94;;
59284;Laerm;45056;47.602;9.886;2023-08-12T11:43:52;47.15;40.13;62.93;;
59284;Laerm;45056;47.602;9.886;2023-08-12T11:46:20;48.10;41.06;61.25;;
59284;Laerm;45056;47.602;9.886;2023-08-12T11:48:48;47.93;40.23;64.66;;
59284;Laerm;45056;47.602;9.886;2023-08-12T11:51:16;48.20;41.22;58.82;;
59284;Laerm;45056;47.602;9.886;2023-08-12T11:53:45;47.19;41.46;56.99;;
59284;Laerm;45056;47.602;9.886;2023-08-12T11:56:13;46.29;41.38;55.39;;
59284;Laerm;45056;47.602;9.886;2023-08-12T11:58:42;48.65;41.30;59.61;;
59284;Laerm;45056;47.602;9.886;2023-08-12T12:01:10;49.31;42.35;60.14;;
59284;Laerm;45056;47.602;9.886;2023-08-12T12:03:38;47.77;41.30;63.55;;
59284;Laerm;45056;47.602;9.886;2023-08-12T12:06:07;46.13;39.34;54.73;;
59284;Laerm;45056;47.602;9.886;2023-08-12T12:08:35;46.83;40.13;62.67;;
59284;Laerm;45056;47.602;9.886;2023-08-12T12:11:05;47.22;39.34;58.04;;
59284;Laerm;45056;47.602;9.886;2023-08-12T12:13:34;52.04;41.82;69.79;;
59284;Laerm;45056;47.602;9.886;2023-08-12T12:16:10;46.80;40.13;57.21;;
59284;Laerm;45056;47.602;9.886;2023-08-12T12:18:38;46.63;39.34;60.46;;
59284;Laerm;45056;47.602;9.886;2023-08-12T12:21:06;45.84;39.70;59.45;;
59284;Laerm;45056;47.602;9.886;2023-08-12T12:23:37;50.94;40.80;67.17;;
59284;Laerm;45056;47.602;9.886;2023-08-12T12:26:05;46.12;39.70;58.69;;
59284;Laerm;45056;47.602;9.886;2023-08-12T12:28:33;44.29;39.08;56.32;;
59284;Laerm;45056;47.602;9.886;2023-08-12T12:31:01;49.12;38.95;72.09;;
59284;Laerm;45056;47.602;9.886;2023-08-12T12:33:31;45.14;38.05;59.18;;
59284;Laerm;45056;47.602;9.886;2023-08-12T12:35:58;45.47;39.81;55.65;;
59284;Laerm;45056;47.602;9.886;2023-08-12T12:38:27;47.39;40.53;60.73;;
59284;Laerm;45056;47.602;9.886;2023-08-12T12:40:56;45.74;40.23;63.72;;
59284;Laerm;45056;47.602;9.886;2023-08-12T12:43:24;46.71;40.53;65.24;;
59284;Laerm;45056;47.602;9.886;2023-08-12T12:45:52;47.26;40.23;75.36;;
59284;Laerm;45056;47.602;9.886;2023-08-12T12:48:20;47.61;39.92;66.15;;
59284;Laerm;45056;47.602;9.886;2023-08-12T12:50:49;49.19;39.89;78.64;;
59284;Laerm;45056;47.602;9.886;2023-08-12T12:53:17;46.89;40.98;56.88;;
59284;Laerm;45056;47.602;9.886;2023-08-12T12:55:45;47.05;40.89;60.76;;
59284;Laerm;45056;47.602;9.886;2023-08-12T12:58:13;47.71;42.29;57.81;;
59284;Laerm;45056;47.602;9.886;2023-08-12T13:00:42;51.78;41.38;64.23;;
59284;Laerm;45056;47.602;9.886;2023-08-12T13:03:10;46.49;41.06;54.57;;
59284;Laerm;45056;47.602;9.886;2023-08-12T13:05:38;45.47;40.03;60.37;;
59284;Laerm;45056;47.602;9.886;2023-08-12T13:08:08;46.65;40.62;59.47;;
59284;Laerm;45056;47.602;9.886;2023-08-12T13:10:36;48.39;40.13;59.68;;
59284;Laerm;45056;47.602;9.886;2023-08-12T13:13:04;48.15;40.80;62.89;;
59284;Laerm;45056;47.602;9.886;2023-08-12T13:15:32;47.13;40.03;56.69;;
59284;Laerm;45056;47.602;9.886;2023-08-12T13:18:00;44.88;38.37;52.79;;
59284;Laerm;45056;47.602;9.886;2023-08-12T13:20:28;47.14;41.75;56.94;;
59284;Laerm;45056;47.602;9.886;2023-08-12T13:22:56;46.69;40.43;55.86;;
59284;Laerm;45056;47.602;9.886;2023-08-12T13:25:28;45.63;39.70;55.33;;
59284;Laerm;45056;47.602;9.886;2023-08-12T13:27:58;46.22;41.53;54.05;;
59284;Laerm;45056;47.602;9.886;2023-08-12T13:30:27;48.84;39.34;62.96;;
59284;Laerm;45056;47.602;9.886;2023-08-12T13:32:56;46.66;40.03;61.21;;
59284;Laerm;45056;47.602;9.886;2023-08-12T13:35:25;47.94;40.62;66.68;;
59284;Laerm;45056;47.602;9.886;2023-08-12T13:37:52;50.03;40.13;80.58;;
59284;Laerm;45056;47.602;9.886;2023-08-12T13:40:21;45.66;39.46;55.85;;
59284;Laerm;45056;47.602;9.886;2023-08-12T13:42:50;45.78;40.54;56.82;;
59284;Laerm;45056;47.602;9.886;2023-08-12T13:45:19;45.68;38.52;57.39;;
59284;Laerm;45056;47.602;9.886;2023-08-12T13:47:47;46.09;39.58;57.32;;
59284;Laerm;45056;47.602;9.886;2023-08-12T13:50:15;46.23;39.08;55.64;;
59284;Laerm;45056;47.602;9.886;2023-08-12T13:52:45;47.08;40.43;62.50;;
59284;Laerm;45056;47.602;9.886;2023-08-12T13:55:14;47.47;40.23;61.59;;
59284;Laerm;45056;47.602;9.886;2023-08-12T13:57:42;47.05;38.95;60.19;;
59284;Laerm;45056;47.602;9.886;2023-08-12T14:00:12;46.94;39.34;57.11;;
59284;Laerm;45056;47.602;9.886;2023-08-12T14:02:41;46.47;38.37;56.97;;
59284;Laerm;45056;47.602;9.886;2023-08-12T14:05:11;46.01;39.58;53.68;;
59284;Laerm;45056;47.602;9.886;2023-08-12T14:07:39;46.00;39.08;56.38;;
59284;Laerm;45056;47.602;9.886;2023-08-12T14:10:08;46.72;40.62;56.39;;
59284;Laerm;45056;47.602;9.886;2023-08-12T14:12:36;46.57;39.46;57.74;;
59284;Laerm;45056;47.602;9.886;2023-08-12T14:15:05;46.31;40.53;57.36;;
59284;Laerm;45056;47.602;9.886;2023-08-12T14:17:35;45.79;40.33;56.29;;
59284;Laerm;45056;47.602;9.886;2023-08-12T14:20:04;45.11;39.21;57.08;;
59284;Laerm;45056;47.602;9.886;2023-08-12T14:22:34;45.80;39.34;54.33;;
59284;Laerm;45056;47.602;9.886;2023-08-12T14:25:03;47.91;39.58;65.14;;
59284;Laerm;45056;47.602;9.886;2023-08-12T14:27:31;46.01;40.23;55.30;;
59284;Laerm;45056;47.602;9.886;2023-08-12T14:29:59;51.78;39.08;69.06;;
59284;Laerm;45056;47.602;9.886;2023-08-12T14:32:27;45.91;38.95;57.76;;
59284;Laerm;45056;47.602;9.886;2023-08-12T14:34:57;47.20;39.58;59.70;;
59284;Laerm;45056;47.602;9.886;2023-08-12T14:37:25;46.01;39.34;58.53;;